createdAt,value
2018-06-07T00:00:07.980Z,20.50
2018-06-07T00:01:11.376Z,20.50
2018-06-07T00:02:14.780Z,20.40
2018-06-07T00:03:18.219Z,20.30
2018-06-07T00:04:21.591Z,20.20
2018-06-07T00:05:24.945Z,20.20
2018-06-07T00:06:28.271Z,20.10
2018-06-07T00:07:31.656Z,20.10
2018-06-07T00:08:35.051Z,20.10
2018-06-07T00:09:38.412Z,20.20
2018-06-07T00:10:41.755Z,20.20
2018-06-07T00:11:45.114Z,20.30
2018-06-07T00:12:48.474Z,20.30
2018-06-07T00:13:51.866Z,20.40
2018-06-07T00:14:55.217Z,20.40
2018-06-07T00:15:58.597Z,20.40
2018-06-07T00:17:01.965Z,20.30
2018-06-07T00:18:05.416Z,20.30
2018-06-07T00:19:08.809Z,20.30
2018-06-07T00:20:12.197Z,20.30
2018-06-07T00:21:15.534Z,20.30
2018-06-07T00:22:18.924Z,20.30
2018-06-07T00:23:22.297Z,20.20
2018-06-07T00:24:25.631Z,20.20
2018-06-07T00:25:29.885Z,20.30
2018-06-07T00:26:33.251Z,20.30
2018-06-07T00:27:36.644Z,20.30
2018-06-07T00:28:39.998Z,20.20
2018-06-07T00:29:43.362Z,20.20
2018-06-07T00:30:46.767Z,20.20
2018-06-07T00:31:50.109Z,20.20
2018-06-07T00:32:53.523Z,20.10
2018-06-07T00:33:56.891Z,20.10
2018-06-07T00:35:00.231Z,20.10
2018-06-07T00:36:03.632Z,20.10
2018-06-07T00:37:07.010Z,20.20
2018-06-07T00:38:10.364Z,20.20
2018-06-07T00:39:13.780Z,20.30
2018-06-07T00:40:17.167Z,20.20
2018-06-07T00:41:20.513Z,20.20
2018-06-07T00:42:23.872Z,20.20
2018-06-07T00:43:27.239Z,20.00
2018-06-07T00:44:30.580Z,19.90
2018-06-07T00:45:33.982Z,19.90
2018-06-07T00:46:37.354Z,19.80
2018-06-07T00:47:40.712Z,19.80
2018-06-07T00:48:44.070Z,19.70
2018-06-07T00:49:47.472Z,19.80
2018-06-07T00:50:50.813Z,19.70
2018-06-07T00:51:54.211Z,19.70
2018-06-07T00:52:57.576Z,19.70
2018-06-07T00:54:00.911Z,19.70
2018-06-07T00:55:04.292Z,19.80
2018-06-07T00:56:07.646Z,19.70
2018-06-07T00:57:11.047Z,19.60
2018-06-07T00:58:14.397Z,19.70
2018-06-07T00:59:17.753Z,19.60
2018-06-07T01:01:24.219Z,19.70
2018-06-07T01:02:27.607Z,19.50
2018-06-07T01:03:30.946Z,19.30
2018-06-07T01:04:34.399Z,19.30
2018-06-07T01:05:37.784Z,19.20
2018-06-07T01:06:41.136Z,19.30
2018-06-07T01:07:44.512Z,19.30
2018-06-07T01:08:47.879Z,19.30
2018-06-07T01:09:51.235Z,19.30
2018-06-07T01:10:54.581Z,19.40
2018-06-07T01:11:57.969Z,19.30
2018-06-07T01:13:01.339Z,19.20
2018-06-07T01:14:04.762Z,19.20
2018-06-07T01:15:08.106Z,19.00
2018-06-07T01:16:11.451Z,19.00
2018-06-07T01:17:14.802Z,18.90
2018-06-07T01:18:18.148Z,18.90
2018-06-07T01:19:21.556Z,18.90
2018-06-07T01:20:24.922Z,18.80
2018-06-07T01:21:28.318Z,18.80
2018-06-07T01:22:31.716Z,18.90
2018-06-07T01:23:35.099Z,18.80
2018-06-07T01:24:38.436Z,18.90
2018-06-07T01:25:41.835Z,19.00
2018-06-07T01:26:46.863Z,19.00
2018-06-07T01:27:50.247Z,18.80
2018-06-07T01:28:53.579Z,18.90
2018-06-07T01:30:08.821Z,18.80
2018-06-07T01:31:17.485Z,18.80
2018-06-07T01:33:45.982Z,18.80
2018-06-07T01:34:49.367Z,18.80
2018-06-07T01:35:53.139Z,18.80
2018-06-07T01:36:56.465Z,18.90
2018-06-07T01:38:11.314Z,18.80
2018-06-07T01:39:15.281Z,18.80
2018-06-07T01:40:18.640Z,18.90
2018-06-07T01:41:22.757Z,18.80
2018-06-07T01:42:26.508Z,18.70
2018-06-07T01:43:30.531Z,18.70
2018-06-07T01:44:33.898Z,18.80
2018-06-07T01:45:37.243Z,18.80
2018-06-07T01:46:40.612Z,18.80
2018-06-07T01:48:47.113Z,18.80
2018-06-07T01:49:50.502Z,18.70
2018-06-07T01:50:53.842Z,18.70
2018-06-07T01:51:57.177Z,18.70
2018-06-07T01:53:00.618Z,18.70
2018-06-07T01:54:04.092Z,18.70
2018-06-07T01:55:07.455Z,18.80
2018-06-07T01:56:10.851Z,18.80
2018-06-07T01:58:23.981Z,18.80
2018-06-07T02:00:30.443Z,18.70
2018-06-07T02:01:34.338Z,18.70
2018-06-07T02:02:37.680Z,18.80
2018-06-07T02:03:41.019Z,18.60
2018-06-07T02:04:44.410Z,18.50
2018-06-07T02:05:47.774Z,18.50
2018-06-07T02:06:51.178Z,18.50
2018-06-07T02:07:54.527Z,18.40
2018-06-07T02:08:57.927Z,18.40
2018-06-07T02:10:01.267Z,18.40
2018-06-07T02:11:04.652Z,18.40
2018-06-07T02:12:08.045Z,18.30
2018-06-07T02:13:11.410Z,18.20
2018-06-07T02:14:14.784Z,18.30
2018-06-07T02:15:18.186Z,18.30
2018-06-07T02:16:21.536Z,18.30
2018-06-07T02:17:24.891Z,18.30
2018-06-07T02:18:28.296Z,18.30
2018-06-07T02:19:31.660Z,18.30
2018-06-07T02:20:35.023Z,18.20
2018-06-07T02:21:45.128Z,18.20
2018-06-07T02:22:48.486Z,18.20
2018-06-07T02:23:51.864Z,18.30
2018-06-07T02:24:55.196Z,18.30
2018-06-07T02:25:58.547Z,18.30
2018-06-07T02:27:02.005Z,18.30
2018-06-07T02:28:05.354Z,18.30
2018-06-07T02:29:08.775Z,18.30
2018-06-07T02:30:12.129Z,18.20
2018-06-07T02:31:15.497Z,18.20
2018-06-07T02:32:18.906Z,18.30
2018-06-07T02:33:22.263Z,18.30
2018-06-07T02:34:25.628Z,18.20
2018-06-07T02:35:28.984Z,18.20
2018-06-07T02:36:32.327Z,18.30
2018-06-07T02:37:35.688Z,18.30
2018-06-07T02:38:39.035Z,18.40
2018-06-07T02:39:42.400Z,18.40
2018-06-07T02:40:45.758Z,18.30
2018-06-07T02:41:49.153Z,18.30
2018-06-07T02:42:52.479Z,18.30
2018-06-07T02:43:55.874Z,18.30
2018-06-07T02:44:59.238Z,18.20
2018-06-07T02:46:02.572Z,18.30
2018-06-07T02:47:05.937Z,18.30
2018-06-07T02:48:09.278Z,18.30
2018-06-07T02:49:12.675Z,18.20
2018-06-07T02:50:16.065Z,18.20
2018-06-07T02:51:19.414Z,18.20
2018-06-07T02:52:22.744Z,18.30
2018-06-07T02:53:26.072Z,18.30
2018-06-07T02:54:29.447Z,18.20
2018-06-07T02:55:32.942Z,18.20
2018-06-07T02:56:36.269Z,18.20
2018-06-07T02:57:39.618Z,18.20
2018-06-07T02:58:43.001Z,18.30
2018-06-07T02:59:46.326Z,18.30
2018-06-07T03:00:49.730Z,18.20
2018-06-07T03:01:53.064Z,18.20
2018-06-07T03:02:56.409Z,18.20
2018-06-07T03:03:59.783Z,18.10
2018-06-07T03:05:03.106Z,18.10
2018-06-07T03:06:06.613Z,18.10
2018-06-07T03:07:09.951Z,18.20
2018-06-07T03:08:13.313Z,18.20
2018-06-07T03:09:16.652Z,18.20
2018-06-07T03:10:20.012Z,18.20
2018-06-07T03:11:23.369Z,18.20
2018-06-07T03:12:26.704Z,18.10
2018-06-07T03:13:30.072Z,18.10
2018-06-07T03:14:33.475Z,18.10
2018-06-07T03:15:36.791Z,18.10
2018-06-07T03:16:40.118Z,18.00
2018-06-07T03:17:43.455Z,18.00
2018-06-07T03:18:46.808Z,18.00
2018-06-07T03:19:50.162Z,18.10
2018-06-07T03:20:53.510Z,18.20
2018-06-07T03:21:56.840Z,18.20
2018-06-07T03:23:00.236Z,18.20
2018-06-07T03:24:03.591Z,18.10
2018-06-07T03:25:06.936Z,18.10
2018-06-07T03:26:10.252Z,18.00
2018-06-07T03:27:13.588Z,18.00
2018-06-07T03:28:16.955Z,18.10
2018-06-07T03:29:20.290Z,18.10
2018-06-07T03:30:23.628Z,18.10
2018-06-07T03:31:27.008Z,18.10
2018-06-07T03:32:30.339Z,18.10
2018-06-07T03:33:33.703Z,18.10
2018-06-07T03:34:37.019Z,18.10
2018-06-07T03:35:40.331Z,18.10
2018-06-07T03:36:43.688Z,18.20
2018-06-07T03:37:47.018Z,18.20
2018-06-07T03:38:50.342Z,18.30
2018-06-07T03:40:00.132Z,18.30
2018-06-07T03:41:03.543Z,18.20
2018-06-07T03:42:06.869Z,18.20
2018-06-07T03:43:10.927Z,18.30
2018-06-07T03:44:15.059Z,18.30
2018-06-07T03:45:18.420Z,18.20
2018-06-07T03:46:21.763Z,18.30
2018-06-07T03:47:25.091Z,18.30
2018-06-07T03:48:28.410Z,18.20
2018-06-07T03:49:31.741Z,18.20
2018-06-07T03:50:35.096Z,18.20
2018-06-07T03:51:38.462Z,18.30
2018-06-07T03:52:41.827Z,18.30
2018-06-07T03:53:45.176Z,18.40
2018-06-07T03:54:48.540Z,18.30
2018-06-07T03:55:51.871Z,18.40
2018-06-07T03:56:55.239Z,18.40
2018-06-07T03:57:58.571Z,18.50
2018-06-07T03:59:01.934Z,18.50
2018-06-07T04:00:05.392Z,18.50
2018-06-07T04:01:08.725Z,18.40
2018-06-07T04:02:12.048Z,18.40
2018-06-07T04:03:15.370Z,18.40
2018-06-07T04:04:18.691Z,18.40
2018-06-07T04:05:22.027Z,18.50
2018-06-07T04:06:25.364Z,18.50
2018-06-07T04:07:28.692Z,18.30
2018-06-07T04:08:32.025Z,18.30
2018-06-07T04:09:35.431Z,18.40
2018-06-07T04:10:38.768Z,18.40
2018-06-07T04:11:42.112Z,18.20
2018-06-07T04:12:45.463Z,18.20
2018-06-07T04:13:48.820Z,18.20
2018-06-07T04:14:52.201Z,18.30
2018-06-07T04:15:55.546Z,18.30
2018-06-07T04:16:58.906Z,18.30
2018-06-07T04:18:02.230Z,18.40
2018-06-07T04:19:05.616Z,18.40
2018-06-07T04:20:09.007Z,18.40
2018-06-07T04:21:12.340Z,18.40
2018-06-07T04:22:15.719Z,18.50
2018-06-07T04:23:19.152Z,18.50
2018-06-07T04:24:22.493Z,18.50
2018-06-07T04:25:25.853Z,18.50
2018-06-07T04:26:29.205Z,18.50
2018-06-07T04:27:32.529Z,18.60
2018-06-07T04:28:35.906Z,18.60
2018-06-07T04:29:39.252Z,18.70
2018-06-07T04:30:42.628Z,18.70
2018-06-07T04:32:49.045Z,18.70
2018-06-07T04:33:52.372Z,18.80
2018-06-07T04:35:58.860Z,18.80
2018-06-07T04:37:02.231Z,18.80
2018-06-07T04:38:05.609Z,18.80
2018-06-07T04:39:08.972Z,18.80
2018-06-07T04:40:12.336Z,18.80
2018-06-07T04:41:15.735Z,18.80
2018-06-07T04:42:19.092Z,18.80
2018-06-07T04:43:22.456Z,18.80
2018-06-07T04:44:25.843Z,18.70
2018-06-07T04:45:29.212Z,18.70
2018-06-07T04:47:35.689Z,18.60
2018-06-07T04:48:39.054Z,18.70
2018-06-07T04:49:42.434Z,18.70
2018-06-07T04:50:45.855Z,18.70
2018-06-07T04:51:49.208Z,18.60
2018-06-07T04:52:52.606Z,18.60
2018-06-07T04:53:55.953Z,18.60
2018-06-07T04:54:59.320Z,18.60
2018-06-07T04:56:02.716Z,18.60
2018-06-07T04:57:06.063Z,18.70
2018-06-07T04:58:09.403Z,18.70
2018-06-07T04:59:12.786Z,18.60
2018-06-07T05:00:16.189Z,18.70
2018-06-07T05:01:19.565Z,18.70
2018-06-07T05:02:22.895Z,18.70
2018-06-07T05:03:26.290Z,18.70
2018-06-07T05:04:29.644Z,18.80
2018-06-07T05:05:33.024Z,18.80
2018-06-07T05:06:36.371Z,18.80
2018-06-07T05:07:39.770Z,18.80
2018-06-07T05:08:43.259Z,18.80
2018-06-07T05:09:46.611Z,18.70
2018-06-07T05:10:49.985Z,18.80
2018-06-07T05:11:53.338Z,18.80
2018-06-07T05:12:56.724Z,18.80
2018-06-07T05:14:00.080Z,18.80
2018-06-07T05:15:03.455Z,18.70
2018-06-07T05:16:06.791Z,18.70
2018-06-07T05:17:10.168Z,18.70
2018-06-07T05:18:13.527Z,18.80
2018-06-07T05:19:16.984Z,18.70
2018-06-07T05:20:20.387Z,18.70
2018-06-07T05:21:23.726Z,18.80
2018-06-07T05:22:27.058Z,18.80
2018-06-07T05:23:30.419Z,18.80
2018-06-07T05:24:33.776Z,18.70
2018-06-07T05:25:37.161Z,18.80
2018-06-07T05:26:40.508Z,18.70
2018-06-07T05:27:43.843Z,18.90
2018-06-07T05:28:47.172Z,18.90
2018-06-07T05:29:50.520Z,18.80
2018-06-07T05:30:53.891Z,18.80
2018-06-07T05:31:57.244Z,18.90
2018-06-07T05:33:00.572Z,18.80
2018-06-07T05:34:03.928Z,18.80
2018-06-07T05:35:07.267Z,18.80
2018-06-07T05:36:10.622Z,18.70
2018-06-07T05:37:13.959Z,18.80
2018-06-07T05:38:17.292Z,18.90
2018-06-07T05:39:20.644Z,18.90
2018-06-07T05:40:24.001Z,18.90
2018-06-07T05:41:27.375Z,19.00
2018-06-07T05:42:30.736Z,19.10
2018-06-07T05:43:34.075Z,19.10
2018-06-07T05:44:37.409Z,19.10
2018-06-07T05:45:40.730Z,19.10
2018-06-07T05:46:44.117Z,19.10
2018-06-07T05:47:47.452Z,19.20
2018-06-07T05:48:50.785Z,19.10
2018-06-07T05:49:54.118Z,19.10
2018-06-07T05:50:57.470Z,19.10
2018-06-07T05:52:00.921Z,19.00
2018-06-07T05:53:04.228Z,19.00
2018-06-07T05:54:07.556Z,19.10
2018-06-07T05:55:10.893Z,19.10
2018-06-07T05:56:14.225Z,19.10
2018-06-07T05:57:17.613Z,19.20
2018-06-07T05:59:24.059Z,19.20
2018-06-07T06:00:27.392Z,19.40
2018-06-07T06:01:30.740Z,19.40
2018-06-07T06:02:34.114Z,19.50
2018-06-07T06:03:37.493Z,19.50
2018-06-07T06:04:40.870Z,19.70
2018-06-07T06:05:44.208Z,19.80
2018-06-07T06:06:47.568Z,19.80
2018-06-07T06:07:50.920Z,19.80
2018-06-07T06:08:54.299Z,20.00
2018-06-07T06:09:57.625Z,20.10
2018-06-07T06:11:00.990Z,20.20
2018-06-07T06:12:04.355Z,20.20
2018-06-07T06:13:07.727Z,20.20
2018-06-07T06:14:11.095Z,20.20
2018-06-07T06:15:14.445Z,20.10
2018-06-07T06:16:17.776Z,20.20
2018-06-07T06:17:21.115Z,20.20
2018-06-07T06:18:24.475Z,20.30
2018-06-07T06:19:27.812Z,20.20
2018-06-07T06:20:31.146Z,20.30
2018-06-07T06:21:34.481Z,20.20
2018-06-07T06:22:37.810Z,20.20
2018-06-07T06:23:41.216Z,20.20
2018-06-07T06:24:44.560Z,20.20
2018-06-07T06:25:47.893Z,20.30
2018-06-07T06:26:51.284Z,20.30
2018-06-07T06:27:54.625Z,20.20
2018-06-07T06:28:58.032Z,20.30
2018-06-07T06:30:01.395Z,20.40
2018-06-07T06:31:11.211Z,20.50
2018-06-07T06:32:14.618Z,20.60
2018-06-07T06:33:17.942Z,20.60
2018-06-07T06:34:21.332Z,20.60
2018-06-07T06:35:24.685Z,20.70
2018-06-07T06:36:28.032Z,20.60
2018-06-07T06:38:47.372Z,20.70
2018-06-07T06:39:50.743Z,20.60
2018-06-07T06:40:54.107Z,20.70
2018-06-07T06:41:57.440Z,20.70
2018-06-07T06:43:00.771Z,20.70
2018-06-07T06:44:04.171Z,20.80
2018-06-07T06:45:07.545Z,20.70
2018-06-07T06:46:10.910Z,20.50
2018-06-07T06:47:14.277Z,20.50
2018-06-07T06:48:17.625Z,20.50
2018-06-07T06:49:21.040Z,20.60
2018-06-07T06:50:24.335Z,20.70
2018-06-07T06:51:27.696Z,20.70
2018-06-07T06:52:31.044Z,20.70
2018-06-07T06:53:34.415Z,20.70
2018-06-07T06:54:37.760Z,20.70
2018-06-07T06:55:41.132Z,20.60
2018-06-07T06:56:44.508Z,20.50
2018-06-07T06:57:47.847Z,20.50
2018-06-07T06:58:51.187Z,20.50
2018-06-07T06:59:54.516Z,20.50
2018-06-07T07:00:57.864Z,20.60
2018-06-07T07:02:01.235Z,20.70
2018-06-07T07:03:04.567Z,20.60
2018-06-07T07:04:07.932Z,20.80
2018-06-07T07:05:11.303Z,20.80
2018-06-07T07:06:14.645Z,20.90
2018-06-07T07:07:17.984Z,21.00
2018-06-07T07:08:21.334Z,21.10
2018-06-07T07:09:24.698Z,21.30
2018-06-07T07:10:28.071Z,21.30
2018-06-07T07:11:31.418Z,21.40
2018-06-07T07:12:34.792Z,21.40
2018-06-07T07:13:38.141Z,21.50
2018-06-07T07:14:41.489Z,21.40
2018-06-07T07:15:44.867Z,21.40
2018-06-07T07:16:48.218Z,21.40
2018-06-07T07:17:51.548Z,21.50
2018-06-07T07:18:54.881Z,21.60
2018-06-07T07:19:58.224Z,21.50
2018-06-07T07:21:01.582Z,21.50
2018-06-07T07:22:04.928Z,21.50
2018-06-07T07:23:08.258Z,21.50
2018-06-07T07:24:11.822Z,21.60
2018-06-07T07:25:15.149Z,21.60
2018-06-07T07:26:18.794Z,21.70
2018-06-07T07:27:22.141Z,21.60
2018-06-07T07:28:25.496Z,21.60
2018-06-07T07:29:28.871Z,21.80
2018-06-07T07:30:32.245Z,21.80
2018-06-07T07:31:35.592Z,21.90
2018-06-07T07:32:38.940Z,21.90
2018-06-07T07:33:42.263Z,22.00
2018-06-07T07:34:45.612Z,22.10
2018-06-07T07:35:48.944Z,22.20
2018-06-07T07:36:52.314Z,22.20
2018-06-07T07:37:55.657Z,22.20
2018-06-07T07:38:58.982Z,22.30
2018-06-07T07:40:02.328Z,22.30
2018-06-07T07:41:05.671Z,22.40
2018-06-07T07:42:09.051Z,22.50
2018-06-07T07:43:12.388Z,22.40
2018-06-07T07:44:15.720Z,22.40
2018-06-07T07:45:19.102Z,22.40
2018-06-07T07:46:22.405Z,22.40
2018-06-07T07:47:25.788Z,22.40
2018-06-07T07:48:29.123Z,22.50
2018-06-07T07:49:32.451Z,22.50
2018-06-07T07:50:35.789Z,22.50
2018-06-07T07:51:39.136Z,22.50
2018-06-07T07:52:42.500Z,22.60
2018-06-07T07:53:45.860Z,22.60
2018-06-07T07:55:52.336Z,22.70
2018-06-07T07:56:55.683Z,22.60
2018-06-07T07:57:59.014Z,22.70
2018-06-07T07:59:02.340Z,22.70
2018-06-07T08:00:05.751Z,22.80
2018-06-07T08:01:09.092Z,23.00
2018-06-07T08:02:12.426Z,23.00
2018-06-07T08:03:22.147Z,23.10
2018-06-07T08:04:25.464Z,23.10
2018-06-07T08:05:28.848Z,23.10
2018-06-07T08:06:32.201Z,23.20
2018-06-07T08:07:35.528Z,23.20
2018-06-07T08:08:38.888Z,23.20
2018-06-07T08:09:42.222Z,23.10
2018-06-07T08:10:45.586Z,23.10
2018-06-07T08:11:48.925Z,23.10
2018-06-07T08:12:52.270Z,23.00
2018-06-07T08:13:55.601Z,23.10
2018-06-07T08:14:58.968Z,23.10
2018-06-07T08:16:02.315Z,23.20
2018-06-07T08:17:05.684Z,23.20
2018-06-07T08:18:15.584Z,23.10
2018-06-07T08:19:18.975Z,23.20
2018-06-07T08:20:22.363Z,23.20
2018-06-07T08:21:25.711Z,23.30
2018-06-07T08:22:29.071Z,23.40
2018-06-07T08:23:32.404Z,23.40
2018-06-07T08:24:35.745Z,23.40
2018-06-07T08:25:39.127Z,23.50
2018-06-07T08:26:42.462Z,23.60
2018-06-07T08:27:45.784Z,23.70
2018-06-07T08:28:49.135Z,23.80
2018-06-07T08:29:52.482Z,23.80
2018-06-07T08:30:55.892Z,23.90
2018-06-07T08:31:59.246Z,23.90
2018-06-07T08:33:02.602Z,24.00
2018-06-07T08:34:05.962Z,24.10
2018-06-07T08:35:09.308Z,24.20
2018-06-07T08:36:12.658Z,24.30
2018-06-07T08:37:16.005Z,24.40
2018-06-07T08:38:19.353Z,24.30
2018-06-07T08:39:22.718Z,24.30
2018-06-07T08:40:26.092Z,24.30
2018-06-07T08:41:29.433Z,24.40
2018-06-07T08:42:32.762Z,24.50
2018-06-07T08:43:36.108Z,24.50
2018-06-07T08:44:39.511Z,24.70
2018-06-07T08:45:42.863Z,24.70
2018-06-07T08:46:46.239Z,24.80
2018-06-07T08:47:49.601Z,24.70
2018-06-07T08:48:52.946Z,24.80
2018-06-07T08:49:56.287Z,24.80
2018-06-07T08:50:59.650Z,24.90
2018-06-07T08:52:03.004Z,25.10
2018-06-07T08:53:06.369Z,25.30
2018-06-07T08:54:09.708Z,25.40
2018-06-07T08:55:13.056Z,25.50
2018-06-07T08:56:16.522Z,25.40
2018-06-07T08:57:19.855Z,25.50
2018-06-07T08:58:23.190Z,25.60
2018-06-07T08:59:26.510Z,25.80
2018-06-07T09:00:29.906Z,25.90
2018-06-07T09:01:33.273Z,25.90
2018-06-07T09:02:36.613Z,26.00
2018-06-07T09:03:39.993Z,26.00
2018-06-07T09:04:43.343Z,26.00
2018-06-07T09:05:46.677Z,26.10
2018-06-07T09:06:50.024Z,26.00
2018-06-07T09:07:53.358Z,26.00
2018-06-07T09:08:56.728Z,26.10
2018-06-07T09:10:00.083Z,26.00
2018-06-07T09:11:03.415Z,26.00
2018-06-07T09:12:06.736Z,26.00
2018-06-07T09:13:10.099Z,25.80
2018-06-07T09:14:13.503Z,25.80
2018-06-07T09:15:16.833Z,25.80
2018-06-07T09:16:20.174Z,25.90
2018-06-07T09:17:23.545Z,26.00
2018-06-07T09:18:26.883Z,26.20
2018-06-07T09:19:30.290Z,26.30
2018-06-07T09:20:33.597Z,26.30
2018-06-07T09:21:36.931Z,26.50
2018-06-07T09:22:40.256Z,26.40
2018-06-07T09:23:43.599Z,26.30
2018-06-07T09:24:46.989Z,26.40
2018-06-07T09:25:50.307Z,26.60
2018-06-07T09:26:53.627Z,26.70
2018-06-07T09:27:56.969Z,26.70
2018-06-07T09:29:00.300Z,26.70
2018-06-07T09:30:03.687Z,26.50
2018-06-07T09:31:07.084Z,26.00
2018-06-07T09:32:10.408Z,25.80
2018-06-07T09:33:13.755Z,25.90
2018-06-07T09:34:17.140Z,26.10
2018-06-07T09:35:20.483Z,26.20
2018-06-07T09:36:23.819Z,26.00
2018-06-07T09:37:33.591Z,26.20
2018-06-07T09:38:36.955Z,26.20
2018-06-07T09:39:40.283Z,26.40
2018-06-07T09:40:43.643Z,26.70
2018-06-07T09:41:46.967Z,26.90
2018-06-07T09:42:50.315Z,27.00
2018-06-07T09:43:53.716Z,26.90
2018-06-07T09:44:57.104Z,27.00
2018-06-07T09:46:00.436Z,26.80
2018-06-07T09:47:03.903Z,26.80
2018-06-07T09:48:07.239Z,27.00
2018-06-07T09:49:10.589Z,26.90
2018-06-07T09:50:13.936Z,27.00
2018-06-07T09:51:17.269Z,27.00
2018-06-07T09:52:20.628Z,27.00
2018-06-07T09:53:23.964Z,27.10
2018-06-07T09:54:27.324Z,27.20
2018-06-07T09:55:30.648Z,27.20
2018-06-07T09:56:33.989Z,27.30
2018-06-07T09:57:37.328Z,27.20
2018-06-07T09:58:40.708Z,27.10
2018-06-07T09:59:44.081Z,27.10
2018-06-07T10:00:47.406Z,27.30
2018-06-07T10:01:50.868Z,27.40
2018-06-07T10:02:54.512Z,27.60
2018-06-07T10:03:57.849Z,27.80
2018-06-07T10:05:01.175Z,27.60
2018-06-07T10:07:07.608Z,27.80
2018-06-07T10:08:10.962Z,28.10
2018-06-07T10:09:14.289Z,28.20
2018-06-07T10:10:17.709Z,28.20
2018-06-07T10:11:21.038Z,28.20
2018-06-07T10:12:24.424Z,28.20
2018-06-07T10:13:27.746Z,28.40
2018-06-07T10:14:31.060Z,28.70
2018-06-07T10:15:34.391Z,28.80
2018-06-07T10:16:37.726Z,28.80
2018-06-07T10:17:41.120Z,28.90
2018-06-07T10:18:44.486Z,28.90
2018-06-07T10:20:50.883Z,28.80
2018-06-07T10:21:54.214Z,28.90
2018-06-07T10:22:57.539Z,29.10
2018-06-07T10:24:00.917Z,29.00
2018-06-07T10:25:04.701Z,28.70
2018-06-07T10:26:08.045Z,28.80
2018-06-07T10:27:11.379Z,28.80
2018-06-07T10:28:14.827Z,28.60
2018-06-07T10:29:18.198Z,28.50
2018-06-07T10:30:21.511Z,28.50
2018-06-07T10:31:24.834Z,28.60
2018-06-07T10:32:28.153Z,28.60
2018-06-07T10:33:31.525Z,28.60
2018-06-07T10:34:34.879Z,28.80
2018-06-07T10:35:38.231Z,28.90
2018-06-07T10:36:41.568Z,28.90
2018-06-07T10:37:44.899Z,28.80
2018-06-07T10:38:48.256Z,28.60
2018-06-07T10:39:51.583Z,28.40
2018-06-07T10:40:55.010Z,28.40
2018-06-07T10:41:58.350Z,28.40
2018-06-07T10:43:01.682Z,28.50
2018-06-07T10:44:05.014Z,28.50
2018-06-07T10:45:08.404Z,28.60
2018-06-07T10:46:11.744Z,28.60
2018-06-07T10:47:15.079Z,28.70
2018-06-07T10:48:18.395Z,28.60
2018-06-07T10:49:21.780Z,28.80
2018-06-07T10:50:25.103Z,28.90
2018-06-07T10:51:28.463Z,28.90
2018-06-07T10:52:31.862Z,29.10
2018-06-07T10:53:35.176Z,29.30
2018-06-07T10:54:38.539Z,29.50
2018-06-07T10:55:41.862Z,29.30
2018-06-07T10:57:48.327Z,29.60
2018-06-07T10:58:51.705Z,29.70
2018-06-07T10:59:55.004Z,29.70
2018-06-07T11:02:01.404Z,29.90
2018-06-07T11:03:04.794Z,29.80
2018-06-07T11:04:08.135Z,29.90
2018-06-07T11:05:11.464Z,30.10
2018-06-07T11:06:14.783Z,30.30
2018-06-07T11:07:18.112Z,30.10
2018-06-07T11:08:21.475Z,30.10
2018-06-07T11:09:24.835Z,30.20
2018-06-07T11:10:28.155Z,30.20
2018-06-07T11:11:31.507Z,30.20
2018-06-07T11:12:34.884Z,30.00
2018-06-07T11:13:38.214Z,30.10
2018-06-07T11:14:41.596Z,29.90
2018-06-07T11:15:44.875Z,30.00
2018-06-07T11:16:48.235Z,30.10
2018-06-07T11:17:51.551Z,30.00
2018-06-07T11:18:54.879Z,30.00
2018-06-07T11:19:58.211Z,30.20
2018-06-07T11:21:01.544Z,30.30
2018-06-07T11:22:04.907Z,30.50
2018-06-07T11:23:08.243Z,30.50
2018-06-07T11:24:11.572Z,30.30
2018-06-07T11:25:14.918Z,30.30
2018-06-07T11:26:18.281Z,30.50
2018-06-07T11:27:21.615Z,30.80
2018-06-07T11:28:24.944Z,30.90
2018-06-07T11:29:28.271Z,31.00
2018-06-07T11:30:31.597Z,31.00
2018-06-07T11:31:34.952Z,30.80
2018-06-07T11:32:38.274Z,30.90
2018-06-07T11:33:41.606Z,30.90
2018-06-07T11:34:44.922Z,31.00
2018-06-07T11:35:48.248Z,31.10
2018-06-07T11:36:51.632Z,31.00
2018-06-07T11:37:54.995Z,31.00
2018-06-07T11:38:58.327Z,31.10
2018-06-07T11:40:01.648Z,31.10
2018-06-07T11:41:05.024Z,30.90
2018-06-07T11:42:08.372Z,30.80
2018-06-07T11:43:11.716Z,31.00
2018-06-07T11:44:15.036Z,31.10
2018-06-07T11:45:18.389Z,31.20
2018-06-07T11:46:28.532Z,31.10
2018-06-07T11:47:31.858Z,31.10
2018-06-07T11:48:35.186Z,31.10
2018-06-07T11:49:38.508Z,31.10
2018-06-07T11:50:41.867Z,31.10
2018-06-07T11:51:45.190Z,31.30
2018-06-07T11:52:48.531Z,31.10
2018-06-07T11:53:51.864Z,31.00
2018-06-07T11:54:55.235Z,31.10
2018-06-07T11:55:58.590Z,31.00
2018-06-07T11:57:01.968Z,31.20
2018-06-07T11:58:05.312Z,31.40
2018-06-07T12:00:18.488Z,31.40
2018-06-07T12:01:21.858Z,31.50
2018-06-07T12:02:25.192Z,31.40
2018-06-07T12:03:28.552Z,31.60
2018-06-07T12:04:31.883Z,31.80
2018-06-07T12:05:35.206Z,31.80
2018-06-07T12:06:38.567Z,31.90
2018-06-07T12:07:41.897Z,31.90
2018-06-07T12:08:45.271Z,32.00
2018-06-07T12:09:48.614Z,32.10
2018-06-07T12:10:51.988Z,32.10
2018-06-07T12:11:55.332Z,31.90
2018-06-07T12:12:58.669Z,31.80
2018-06-07T12:14:02.036Z,31.70
2018-06-07T12:15:05.412Z,31.60
2018-06-07T12:16:08.774Z,31.50
2018-06-07T12:17:12.124Z,31.50
2018-06-07T12:18:15.477Z,31.60
2018-06-07T12:19:25.386Z,31.80
2018-06-07T12:20:28.708Z,32.00
2018-06-07T12:21:32.031Z,32.10
2018-06-07T12:22:35.402Z,31.90
2018-06-07T12:23:38.764Z,32.10
2018-06-07T12:24:42.078Z,32.20
2018-06-07T12:25:45.424Z,32.20
2018-06-07T12:26:48.751Z,32.30
2018-06-07T12:27:52.111Z,32.20
2018-06-07T12:28:55.479Z,32.10
2018-06-07T12:29:58.852Z,32.10
2018-06-07T12:31:02.179Z,32.00
2018-06-07T12:32:05.513Z,31.80
2018-06-07T12:33:08.884Z,31.70
2018-06-07T12:34:12.220Z,31.60
2018-06-07T12:35:15.559Z,31.60
2018-06-07T12:36:18.869Z,31.60
2018-06-07T12:37:22.204Z,31.30
2018-06-07T12:38:25.571Z,31.30
2018-06-07T12:39:28.897Z,31.30
2018-06-07T12:40:32.252Z,31.30
2018-06-07T12:41:35.915Z,31.50
2018-06-07T12:42:39.266Z,31.60
2018-06-07T12:43:42.639Z,31.70
2018-06-07T12:44:45.982Z,31.90
2018-06-07T12:45:49.322Z,32.00
2018-06-07T12:46:52.666Z,32.10
2018-06-07T12:47:55.984Z,32.20
2018-06-07T12:48:59.339Z,32.20
2018-06-07T12:50:02.706Z,32.50
2018-06-07T12:51:06.049Z,32.70
2018-06-07T12:52:09.383Z,32.80
2018-06-07T12:53:12.727Z,32.90
2018-06-07T12:54:16.076Z,32.80
2018-06-07T12:55:19.442Z,32.90
2018-06-07T12:57:25.847Z,33.20
2018-06-07T12:58:29.181Z,33.40
2018-06-07T12:59:32.537Z,33.50
2018-06-07T13:00:35.941Z,33.50
2018-06-07T13:01:39.251Z,33.60
2018-06-07T13:02:42.590Z,33.10
2018-06-07T13:03:45.926Z,32.70
2018-06-07T13:04:49.283Z,32.60
2018-06-07T13:05:52.643Z,32.70
2018-06-07T13:06:55.984Z,32.70
2018-06-07T13:07:59.306Z,32.80
2018-06-07T13:09:02.717Z,32.90
2018-06-07T13:10:06.066Z,32.90
2018-06-07T13:11:09.395Z,32.80
2018-06-07T13:12:12.767Z,33.00
2018-06-07T13:13:16.091Z,33.00
2018-06-07T13:14:19.407Z,32.60
2018-06-07T13:15:29.232Z,32.60
2018-06-07T13:16:32.560Z,32.60
2018-06-07T13:17:35.935Z,32.40
2018-06-07T13:18:39.268Z,32.80
2018-06-07T13:19:42.599Z,33.00
2018-06-07T13:20:45.972Z,33.20
2018-06-07T13:21:49.322Z,33.10
2018-06-07T13:22:52.650Z,33.10
2018-06-07T13:23:55.967Z,33.30
2018-06-07T13:24:59.355Z,33.20
2018-06-07T13:26:02.691Z,33.40
2018-06-07T13:27:06.027Z,33.50
2018-06-07T13:28:09.347Z,33.50
2018-06-07T13:29:12.719Z,33.60
2018-06-07T13:30:16.066Z,33.80
2018-06-07T13:31:19.409Z,33.80
2018-06-07T13:32:22.738Z,33.50
2018-06-07T13:33:26.071Z,33.60
2018-06-07T13:34:29.458Z,33.70
2018-06-07T13:35:32.795Z,33.70
2018-06-07T13:36:36.126Z,33.20
2018-06-07T13:37:39.519Z,33.00
2018-06-07T13:38:42.862Z,32.90
2018-06-07T13:39:46.184Z,32.80
2018-06-07T13:40:49.566Z,32.90
2018-06-07T13:41:52.906Z,33.00
2018-06-07T13:42:56.263Z,33.20
2018-06-07T13:43:59.659Z,33.00
2018-06-07T13:45:03.015Z,33.00
2018-06-07T13:46:06.377Z,33.20
2018-06-07T13:47:09.716Z,33.20
2018-06-07T13:48:13.045Z,33.00
2018-06-07T13:49:16.374Z,33.30
2018-06-07T13:50:19.757Z,33.50
2018-06-07T13:51:23.105Z,33.80
2018-06-07T13:52:26.436Z,34.00
2018-06-07T13:53:29.773Z,33.90
2018-06-07T13:54:33.099Z,33.70
2018-06-07T13:55:36.452Z,33.50